Time;durP1;ratioP1;P1;durP2;ratioP2;P2;SDS_P1;SDS_P2;PMS_P1;PMS_P2;Temp;Humidity;BMP_temperature;BMP_pressure;BME280_temperature;BME280_humidity;BME280_pressure;Samples;Min_cycle;Max_cycle;Signal;HPM_P1;HPM_P2
2022/06/11 00:01:23;;;;;;;3.22;1.60;;;16.90;99.90;;;;;;5032802;28;20067;-77
2022/06/11 00:03:51;;;;;;;3.17;2.15;;;16.90;99.90;;;;;;5032557;28;20025;-78
2022/06/11 00:06:18;;;;;;;2.53;1.77;;;16.90;99.90;;;;;;5031115;28;20080;-78
2022/06/11 00:08:44;;;;;;;6.68;2.20;;;16.90;99.90;;;;;;5037165;28;20032;-78
2022/06/11 00:11:10;;;;;;;3.85;2.13;;;16.90;99.90;;;;;;5031278;28;20034;-78
2022/06/11 00:13:36;;;;;;;4.05;1.95;;;16.90;99.90;;;;;;5037403;28;20078;-78
2022/06/11 00:16:02;;;;;;;2.85;1.50;;;16.90;99.90;;;;;;5046346;28;20037;-77
2022/06/11 00:18:29;;;;;;;6.03;1.73;;;16.90;99.90;;;;;;5032475;28;20026;-78
2022/06/11 00:20:55;;;;;;;4.70;1.77;;;16.80;99.90;;;;;;5047418;28;20095;-78
2022/06/11 00:23:21;;;;;;;4.35;2.08;;;16.80;99.90;;;;;;5031104;28;20033;-79
2022/06/11 00:25:47;;;;;;;2.70;1.23;;;16.80;99.90;;;;;;5032038;28;20040;-78
2022/06/11 00:28:13;;;;;;;3.38;2.40;;;16.80;99.90;;;;;;5033072;28;20029;-79
2022/06/11 00:30:39;;;;;;;4.25;2.67;;;16.80;99.90;;;;;;5030081;28;20108;-79
2022/06/11 00:33:06;;;;;;;7.57;3.35;;;16.90;99.90;;;;;;5031469;28;20428;-78
2022/06/11 00:35:33;;;;;;;5.80;3.78;;;16.90;99.90;;;;;;5037202;28;20085;-78
2022/06/11 00:37:59;;;;;;;3.95;1.48;;;17.00;99.90;;;;;;5032367;28;20083;-77
2022/06/11 00:40:27;;;;;;;4.15;1.67;;;16.90;99.90;;;;;;5031884;28;20476;-78
2022/06/11 00:42:53;;;;;;;4.40;1.50;;;16.90;99.90;;;;;;5032071;28;20025;-77
2022/06/11 00:45:21;;;;;;;5.05;1.50;;;16.90;99.90;;;;;;5022300;28;20033;-78
2022/06/11 00:47:52;;;;;;;2.75;1.20;;;16.90;99.90;;;;;;5032919;28;20021;-78
2022/06/11 00:50:23;;;;;;;2.88;1.25;;;16.80;99.90;;;;;;5030138;28;20439;-78
2022/06/11 00:52:50;;;;;;;2.15;0.90;;;16.80;99.90;;;;;;5029736;28;20080;-78
2022/06/11 00:55:33;;;;;;;2.10;0.70;;;16.80;99.90;;;;;;5036619;28;20045;-78
2022/06/11 00:58:11;;;;;;;2.13;0.80;;;16.70;99.90;;;;;;5029638;28;20172;-77
2022/06/11 01:00:44;;;;;;;1.95;0.75;;;16.70;99.90;;;;;;5031172;28;20128;-78
2022/06/11 01:03:17;;;;;;;1.58;0.70;;;16.60;99.90;;;;;;5036794;28;20033;-79
2022/06/11 01:05:49;;;;;;;2.45;0.70;;;16.50;99.90;;;;;;5030238;28;20037;-77
2022/06/11 01:08:44;;;;;;;2.10;0.70;;;16.50;99.90;;;;;;5036163;28;20473;-77
2022/06/11 01:11:27;;;;;;;2.22;0.80;;;16.40;99.90;;;;;;4957447;28;20548;-78
2022/06/11 01:14:20;;;;;;;1.95;0.70;;;16.40;99.90;;;;;;4962763;28;20170;-78
2022/06/11 01:17:04;;;;;;;2.28;0.70;;;16.30;99.90;;;;;;4958955;28;20026;-78
2022/06/11 01:19:57;;;;;;;1.73;0.80;;;16.30;99.90;;;;;;4957250;28;20505;-78
2022/06/11 01:22:56;;;;;;;1.77;0.75;;;16.20;99.90;;;;;;4946718;28;20065;-77
2022/06/11 01:26:15;;;;;;;2.03;1.00;;;16.20;99.90;;;;;;4963429;28;20022;-78
2022/06/11 01:28:47;;;;;;;2.05;0.80;;;16.10;99.90;;;;;;4884509;29;20131;-78
2022/06/11 01:31:12;;;;;;;2.70;0.93;;;16.10;99.90;;;;;;4884571;29;20044;-78
2022/06/11 01:33:59;;;;;;;3.17;1.05;;;16.00;99.90;;;;;;4884684;29;20542;-78
2022/06/11 01:36:29;;;;;;;1.70;0.77;;;15.90;99.90;;;;;;4884789;29;20063;-77
2022/06/11 01:39:01;;;;;;;;;;;15.90;99.90;;;;;;4885060;29;20044;-78
2022/06/11 01:41:34;;;;;;;2.13;0.90;;;15.90;99.90;;;;;;4897908;29;20025;-77
2022/06/11 01:44:10;;;;;;;2.38;0.85;;;15.80;99.90;;;;;;4869116;29;20471;-78
2022/06/11 01:46:40;;;;;;;2.25;1.08;;;15.80;99.90;;;;;;4902158;28;20062;-77
2022/06/11 01:49:08;;;;;;;;;;;15.80;99.90;;;;;;4924853;28;20070;-78
2022/06/11 01:51:56;;;;;;;1.60;0.88;;;15.70;99.90;;;;;;4924160;28;19977;-78
2022/06/11 01:54:46;;;;;;;3.50;1.55;;;15.70;99.90;;;;;;4950721;28;20187;-78
2022/06/11 01:57:41;;;;;;;2.83;1.00;;;15.70;99.90;;;;;;4939978;28;20038;-78
2022/06/11 02:00:15;;;;;;;3.03;1.10;;;15.70;99.90;;;;;;4925156;28;20050;-77
2022/06/11 02:03:23;;;;;;;2.05;0.90;;;15.60;99.90;;;;;;4935417;28;20650;-78
2022/06/11 02:06:24;;;;;;;2.33;0.80;;;15.60;99.90;;;;;;5034870;28;20028;-77
2022/06/11 02:09:02;;;;;;;4.03;1.10;;;15.60;99.90;;;;;;5017905;28;20041;-78
2022/06/11 02:11:48;;;;;;;2.10;0.70;;;15.60;99.90;;;;;;5030074;28;20038;-78
2022/06/11 02:14:35;;;;;;;2.05;0.70;;;15.50;99.90;;;;;;5028187;28;20439;-78
2022/06/11 02:17:08;;;;;;;2.90;0.70;;;15.50;99.90;;;;;;5043679;28;20067;-78
2022/06/11 02:19:47;;;;;;;2.70;0.90;;;15.50;99.90;;;;;;5030705;28;20740;-78
2022/06/11 02:22:21;;;;;;;2.03;0.80;;;15.50;99.90;;;;;;5019131;28;20041;-78
2022/06/11 02:24:51;;;;;;;1.80;0.80;;;15.40;99.90;;;;;;5014142;28;20389;-78
2022/06/11 02:27:23;;;;;;;1.88;0.85;;;15.40;99.90;;;;;;5043920;28;20029;-78
2022/06/11 02:29:52;;;;;;;2.38;0.77;;;15.40;99.90;;;;;;5011146;28;20149;-78
2022/06/11 02:32:20;;;;;;;2.08;0.70;;;15.40;99.90;;;;;;5029353;28;20480;-77
2022/06/11 02:34:50;;;;;;;3.78;0.80;;;15.30;99.90;;;;;;5034860;28;20334;-78
2022/06/11 02:37:21;;;;;;;1.85;0.95;;;15.30;99.90;;;;;;5034672;28;21953;-78
2022/06/11 02:39:48;;;;;;;2.28;0.80;;;15.20;99.90;;;;;;5010450;28;20040;-77
2022/06/11 02:42:17;;;;;;;1.98;1.00;;;15.20;99.90;;;;;;5030591;28;20203;-77
2022/06/11 02:44:44;;;;;;;2.30;1.00;;;15.20;99.90;;;;;;5014789;28;20079;-77
2022/06/11 02:47:11;;;;;;;2.50;0.95;;;15.20;99.90;;;;;;5026925;28;20563;-77
2022/06/11 02:49:38;;;;;;;2.67;1.10;;;15.20;99.90;;;;;;5044913;28;20025;-78
2022/06/11 02:52:09;;;;;;;3.50;1.27;;;15.20;99.90;;;;;;5029477;28;20033;-78
2022/06/11 02:54:34;;;;;;;2.15;0.93;;;15.20;99.90;;;;;;5016738;28;20128;-78
2022/06/11 02:57:07;;;;;;;2.20;1.35;;;15.10;99.90;;;;;;5043618;28;20120;-78
2022/06/11 02:59:33;;;;;;;1.98;1.10;;;15.20;99.90;;;;;;5020170;28;20268;-78
2022/06/11 03:01:59;;;;;;;1.98;0.80;;;15.10;99.90;;;;;;5035857;28;20052;-78
2022/06/11 03:04:26;;;;;;;2.20;1.00;;;15.10;99.90;;;;;;5029941;28;20036;-77
2022/06/11 03:06:53;;;;;;;2.30;1.10;;;15.20;99.90;;;;;;5012082;28;20362;-78
2022/06/11 03:09:25;;;;;;;2.03;0.90;;;15.10;99.90;;;;;;5033561;28;20025;-78
2022/06/11 03:11:52;;;;;;;3.60;1.45;;;15.10;99.90;;;;;;5029138;28;20037;-78
2022/06/11 03:14:18;;;;;;;1.85;1.20;;;15.10;99.90;;;;;;5030253;28;20056;-78
2022/06/11 03:16:45;;;;;;;3.30;1.20;;;15.10;99.90;;;;;;5035369;28;20476;-78
2022/06/11 03:19:11;;;;;;;1.90;1.23;;;15.10;99.90;;;;;;5029998;28;22536;-77
2022/06/11 03:21:38;;;;;;;2.10;1.20;;;15.10;99.90;;;;;;5031026;28;20041;-78
2022/06/11 03:24:04;;;;;;;3.65;1.17;;;15.10;99.90;;;;;;5033532;28;20117;-78
2022/06/11 03:26:30;;;;;;;4.50;1.50;;;15.10;99.90;;;;;;5031990;28;20029;-78
2022/06/11 03:28:56;;;;;;;2.22;1.48;;;15.10;99.90;;;;;;5020245;28;20358;-79
2022/06/11 03:31:22;;;;;;;3.95;1.85;;;15.10;99.90;;;;;;5048357;28;20400;-78
2022/06/11 03:33:47;;;;;;;3.03;1.23;;;15.10;99.90;;;;;;5038949;28;20632;-77
2022/06/11 03:36:16;;;;;;;1.80;1.10;;;15.10;99.90;;;;;;5031650;28;20165;-78
2022/06/11 03:38:43;;;;;;;2.65;1.35;;;15.00;99.90;;;;;;5032990;28;20091;-78
2022/06/11 03:41:11;;;;;;;2.50;1.33;;;15.10;99.90;;;;;;5032436;28;20141;-79
2022/06/11 03:43:36;;;;;;;3.45;1.23;;;15.10;99.90;;;;;;5019738;28;20029;-79
2022/06/11 03:46:04;;;;;;;3.67;1.30;;;15.10;99.90;;;;;;5037205;28;20385;-78
2022/06/11 03:48:30;;;;;;;3.05;1.20;;;15.00;99.90;;;;;;5030847;28;20029;-78
2022/06/11 03:50:57;;;;;;;1.92;0.90;;;15.10;99.90;;;;;;5030488;28;20037;-79
2022/06/11 03:53:24;;;;;;;4.93;1.77;;;15.00;99.90;;;;;;5032785;28;20112;-78
2022/06/11 03:55:50;;;;;;;3.25;1.50;;;15.10;99.90;;;;;;5036326;28;20049;-78
2022/06/11 03:58:18;;;;;;;4.82;2.10;;;15.10;99.90;;;;;;5021295;28;20053;-78
2022/06/11 04:03:30;;;;;;;3.78;1.70;;;15.10;99.90;;;;;;5030084;28;20025;-78
2022/06/11 04:05:56;;;;;;;4.95;1.27;;;15.00;99.90;;;;;;5020990;28;20704;-78
2022/06/11 04:08:23;;;;;;;2.58;0.80;;;15.10;99.90;;;;;;5032936;28;20447;-77
2022/06/11 04:10:50;;;;;;;2.45;1.00;;;15.00;99.90;;;;;;5030559;28;20477;-78
2022/06/11 04:13:17;;;;;;;2.55;0.80;;;15.00;99.90;;;;;;5030995;28;20087;-77
2022/06/11 04:15:43;;;;;;;1.52;0.70;;;15.10;99.90;;;;;;5029313;28;20042;-77
2022/06/11 04:18:29;;;;;;;3.03;0.80;;;15.10;99.90;;;;;;5035536;28;20032;-78
2022/06/11 04:20:55;;;;;;;3.72;1.10;;;15.20;99.90;;;;;;5031551;28;20037;-78
2022/06/11 04:23:24;;;;;;;2.08;0.70;;;15.30;99.90;;;;;;5036057;28;20021;-78
2022/06/11 04:25:51;;;;;;;2.42;0.80;;;15.30;99.90;;;;;;5032006;28;20033;-79
2022/06/11 04:28:17;;;;;;;3.72;1.25;;;15.40;99.90;;;;;;5025963;28;20028;-79
2022/06/11 04:30:42;;;;;;;4.15;1.05;;;15.50;99.90;;;;;;5031279;28;20499;-79
2022/06/11 04:33:08;;;;;;;2.50;0.60;;;15.50;99.90;;;;;;5035322;28;20055;-79
2022/06/11 04:35:34;;;;;;;5.20;0.75;;;15.50;99.90;;;;;;5046186;28;20103;-79
2022/06/11 04:38:00;;;;;;;4.60;0.90;;;15.60;99.90;;;;;;5035917;28;20571;-79
2022/06/11 04:40:25;;;;;;;2.88;0.80;;;15.70;99.90;;;;;;5045765;28;20029;-78
2022/06/11 04:42:51;;;;;;;2.38;0.70;;;15.80;99.90;;;;;;5028979;28;20393;-79
2022/06/11 04:45:18;;;;;;;2.60;0.70;;;15.80;99.90;;;;;;5031206;28;20388;-79
2022/06/11 04:47:44;;;;;;;3.83;0.70;;;15.80;99.90;;;;;;5030401;28;20060;-79
2022/06/11 04:50:14;;;;;;;6.60;1.05;;;15.90;99.90;;;;;;5029350;28;20560;-78
2022/06/11 04:52:40;;;;;;;7.10;0.90;;;16.00;99.90;;;;;;5029974;28;20032;-78
2022/06/11 04:55:06;;;;;;;3.33;0.90;;;16.00;99.90;;;;;;5029795;28;20090;-79
2022/06/11 04:57:32;;;;;;;8.13;1.02;;;16.10;99.90;;;;;;5035621;28;20033;-80
2022/06/11 04:59:58;;;;;;;3.95;0.60;;;16.10;99.90;;;;;;5045176;28;20152;-80
2022/06/11 05:02:24;;;;;;;4.97;0.77;;;16.20;99.90;;;;;;5035415;28;20029;-78
2022/06/11 05:04:50;;;;;;;4.55;0.70;;;16.20;99.90;;;;;;5031233;28;20048;-78
2022/06/11 05:07:16;;;;;;;5.72;0.80;;;16.30;99.90;;;;;;5011821;28;20075;-79
2022/06/11 05:09:42;;;;;;;5.57;0.73;;;16.30;99.90;;;;;;5045457;28;22091;-79
2022/06/11 05:12:09;;;;;;;3.88;0.77;;;16.30;99.90;;;;;;5018886;28;20044;-81
2022/06/11 05:14:35;;;;;;;5.18;0.65;;;16.40;99.90;;;;;;5015909;28;20025;-79
2022/06/11 05:17:01;;;;;;;6.93;0.80;;;16.40;99.90;;;;;;5030326;28;20495;-80
2022/06/11 05:19:27;;;;;;;5.47;0.90;;;16.40;99.90;;;;;;5030856;28;20079;-78
2022/06/11 05:21:54;;;;;;;4.05;0.60;;;16.50;99.90;;;;;;5046770;28;20049;-79
2022/06/11 05:24:20;;;;;;;3.80;0.73;;;16.40;99.90;;;;;;5030535;28;20715;-78
2022/06/11 05:27:14;;;;;;;4.05;0.57;;;16.50;99.90;;;;;;5030669;28;20060;-78
2022/06/11 05:29:57;;;;;;;6.35;0.90;;;16.50;99.90;;;;;;5029174;28;20091;-79
2022/06/11 05:32:29;;;;;;;5.20;0.80;;;16.40;99.90;;;;;;5037091;28;20025;-79
2022/06/11 05:35:00;;;;;;;4.70;0.63;;;16.50;99.90;;;;;;5031620;28;20037;-78
2022/06/11 05:37:26;;;;;;;7.45;1.10;;;16.60;99.90;;;;;;5035274;28;20048;-78
2022/06/11 05:39:52;;;;;;;6.32;0.85;;;16.70;99.90;;;;;;5034864;28;20033;-79
2022/06/11 05:42:21;;;;;;;5.75;0.73;;;16.90;99.90;;;;;;5044147;28;20496;-79
2022/06/11 05:44:46;;;;;;;5.88;0.70;;;16.90;99.90;;;;;;5018945;28;20029;-79
2022/06/11 05:47:17;;;;;;;9.10;0.80;;;17.00;99.90;;;;;;5030170;28;20107;-79
2022/06/11 05:49:46;;;;;;;8.95;0.85;;;17.00;99.90;;;;;;5028958;28;20037;-78
2022/06/11 05:52:20;;;;;;;7.60;0.80;;;17.00;99.90;;;;;;5034755;28;20041;-79
2022/06/11 05:54:47;;;;;;;5.88;0.90;;;17.00;99.90;;;;;;5044161;28;20060;-78
2022/06/11 05:57:17;;;;;;;10.63;1.23;;;17.10;99.90;;;;;;5036602;28;20030;-78
2022/06/11 05:59:46;;;;;;;8.00;0.95;;;17.20;99.90;;;;;;5041516;28;20076;-80
2022/06/11 06:02:15;;;;;;;8.00;0.90;;;17.20;99.90;;;;;;5028856;28;20025;-79
2022/06/11 06:04:40;;;;;;;8.70;1.00;;;17.10;99.90;;;;;;5028396;28;20039;-78
2022/06/11 06:07:07;;;;;;;10.32;1.10;;;17.10;99.90;;;;;;5027573;28;20476;-79
2022/06/11 06:09:34;;;;;;;6.30;0.90;;;17.10;99.90;;;;;;5029663;28;20030;-78
2022/06/11 06:12:00;;;;;;;8.70;0.80;;;17.20;99.90;;;;;;5016938;28;20060;-79
2022/06/11 06:14:26;;;;;;;8.63;0.63;;;17.40;99.90;;;;;;5032618;28;20090;-78
2022/06/11 06:16:52;;;;;;;7.57;0.63;;;17.60;99.90;;;;;;5029075;28;20029;-77
2022/06/11 06:19:18;;;;;;;9.88;0.70;;;17.70;99.90;;;;;;5029538;28;20025;-78
2022/06/11 06:21:44;;;;;;;12.75;1.02;;;17.70;99.90;;;;;;5028843;28;20508;-79
2022/06/11 06:24:10;;;;;;;12.88;0.93;;;17.70;99.90;;;;;;5027931;28;20029;-79
2022/06/11 06:26:37;;;;;;;9.88;0.95;;;17.60;99.90;;;;;;5029477;28;20045;-79
2022/06/11 06:29:03;;;;;;;11.18;0.80;;;17.50;99.90;;;;;;5026929;28;20445;-79
2022/06/11 06:31:29;;;;;;;8.88;0.80;;;17.70;99.90;;;;;;5028807;28;20082;-78
2022/06/11 06:34:00;;;;;;;8.40;1.00;;;17.60;99.90;;;;;;5034147;28;20481;-78
2022/06/11 06:36:28;;;;;;;9.60;1.25;;;17.70;99.90;;;;;;5029743;28;20054;-79
2022/06/11 06:38:54;;;;;;;9.00;0.80;;;17.60;99.90;;;;;;5011802;28;20489;-78
2022/06/11 06:41:20;;;;;;;11.55;1.10;;;17.60;99.90;;;;;;5015792;28;20124;-78
2022/06/11 06:43:48;;;;;;;10.90;1.05;;;17.70;99.90;;;;;;5033851;28;20507;-77
2022/06/11 06:46:15;;;;;;;6.82;0.60;;;17.80;99.90;;;;;;5027184;28;20441;-79
2022/06/11 06:48:43;;;;;;;10.05;1.40;;;17.90;99.90;;;;;;5028491;28;20528;-79
2022/06/11 06:51:10;;;;;;;8.20;1.15;;;17.90;99.90;;;;;;5015723;28;20159;-79
2022/06/11 06:53:41;;;;;;;8.68;1.00;;;18.10;99.90;;;;;;5033177;28;20087;-78
2022/06/11 06:56:07;;;;;;;4.50;0.63;;;18.20;99.90;;;;;;5030110;28;20029;-78
2022/06/11 06:58:33;;;;;;;6.75;1.00;;;18.40;99.90;;;;;;5032225;28;20377;-79
2022/06/11 07:00:59;;;;;;;9.70;0.95;;;18.20;99.90;;;;;;5036774;28;20072;-79
2022/06/11 07:03:25;;;;;;;7.90;0.68;;;18.30;99.90;;;;;;5038578;28;20033;-79
2022/06/11 07:05:51;;;;;;;7.70;0.90;;;18.50;99.90;;;;;;5030996;28;20037;-79
2022/06/11 07:08:17;;;;;;;10.02;0.93;;;18.70;99.90;;;;;;5020338;28;20167;-78
2022/06/11 07:10:54;;;;;;;11.32;1.02;;;18.80;99.90;;;;;;5032578;28;20048;-77
2022/06/11 07:13:20;;;;;;;9.02;1.40;;;18.80;99.90;;;;;;5032781;28;20067;-79
2022/06/11 07:15:50;;;;;;;4.68;0.70;;;18.70;99.90;;;;;;5039005;28;22155;-79
2022/06/11 07:18:28;;;;;;;6.65;0.65;;;19.30;99.90;;;;;;5032841;28;20037;-85
2022/06/11 07:20:56;;;;;;;7.97;0.60;;;19.50;99.90;;;;;;5032170;28;20036;-78
2022/06/11 07:23:31;;;;;;;9.02;0.95;;;19.50;99.90;;;;;;5031350;28;20025;-78
2022/06/11 07:25:59;;;;;;;6.93;0.75;;;19.30;99.90;;;;;;5037941;28;20160;-78
2022/06/11 07:28:37;;;;;;;7.18;0.93;;;19.20;99.90;;;;;;5031109;28;20021;-78
2022/06/11 07:31:04;;;;;;;5.90;0.70;;;19.30;99.90;;;;;;5039052;28;20536;-77
2022/06/11 07:33:30;;;;;;;10.48;1.13;;;19.50;99.90;;;;;;5033609;28;20220;-83
2022/06/11 07:35:56;;;;;;;10.50;1.05;;;19.10;99.90;;;;;;5033094;28;20507;-79
2022/06/11 07:38:23;;;;;;;8.77;1.33;;;18.90;99.90;;;;;;5047906;28;20025;-82
2022/06/11 07:40:49;;;;;;;7.63;1.23;;;18.90;99.90;;;;;;5032627;28;20043;-79
2022/06/11 07:43:16;;;;;;;10.52;1.10;;;19.10;99.90;;;;;;5032062;28;20032;-78
2022/06/11 07:45:43;;;;;;;8.60;0.82;;;19.60;99.90;;;;;;5038223;28;20164;-78
2022/06/11 07:48:10;;;;;;;8.98;1.13;;;19.20;99.90;;;;;;5047728;28;20036;-84
2022/06/11 07:50:46;;;;;;;13.18;1.00;;;19.40;99.90;;;;;;5021126;28;20314;-78
2022/06/11 07:53:12;;;;;;;8.77;1.00;;;19.90;99.90;;;;;;5036730;28;20037;-78
2022/06/11 07:55:40;;;;;;;7.22;0.70;;;19.90;99.90;;;;;;5021777;28;20128;-81
2022/06/11 07:58:07;;;;;;;6.93;0.80;;;20.70;99.90;;;;;;5036233;28;20037;-79
2022/06/11 08:00:39;;;;;;;9.15;0.90;;;20.20;99.90;;;;;;5035692;28;20075;-78
2022/06/11 08:03:05;;;;;;;6.88;0.80;;;19.80;99.90;;;;;;5030082;28;20025;-79
2022/06/11 08:05:32;;;;;;;6.18;0.60;;;20.20;99.90;;;;;;5031399;28;20079;-80
2022/06/11 08:07:58;;;;;;;7.75;0.98;;;20.00;99.90;;;;;;5030386;28;20227;-78
2022/06/11 08:10:26;;;;;;;9.80;0.70;;;20.00;99.90;;;;;;5036526;28;20060;-78
2022/06/11 08:12:52;;;;;;;11.93;0.70;;;20.00;99.90;;;;;;5036967;28;20092;-79
2022/06/11 08:15:18;;;;;;;8.65;1.05;;;20.40;99.90;;;;;;5047061;28;20044;-80
2022/06/11 08:17:44;;;;;;;5.75;0.88;;;20.40;99.90;;;;;;5012835;28;20040;-78
2022/06/11 08:20:15;;;;;;;9.18;1.00;;;20.60;99.90;;;;;;5031154;28;20453;-78
2022/06/11 08:22:40;;;;;;;8.13;0.73;;;20.30;99.90;;;;;;5037041;28;20079;-79
2022/06/11 08:25:06;;;;;;;8.88;0.73;;;20.40;99.90;;;;;;5046318;28;20029;-79
2022/06/11 08:27:32;;;;;;;7.53;0.77;;;20.70;99.90;;;;;;5030412;28;20059;-81
2022/06/11 08:29:58;;;;;;;11.98;1.38;;;20.50;99.90;;;;;;5037046;28;20036;-79
2022/06/11 08:32:24;;;;;;;12.27;1.08;;;20.40;99.90;;;;;;5035935;28;20044;-81
2022/06/11 08:34:50;;;;;;;6.57;0.50;;;20.80;99.90;;;;;;5046216;28;20032;-80
2022/06/11 08:37:16;;;;;;;6.43;0.70;;;21.20;99.90;;;;;;5035758;28;20051;-79
2022/06/11 08:39:42;;;;;;;6.72;0.75;;;20.90;99.90;;;;;;5030486;28;20025;-80
2022/06/11 08:42:24;;;;;;;5.38;0.40;;;21.10;99.90;;;;;;5036700;28;20467;-79
2022/06/11 08:44:50;;;;;;;9.82;1.10;;;21.70;99.90;;;;;;5015366;28;20040;-78
2022/06/11 08:47:17;;;;;;;8.63;1.05;;;22.00;99.90;;;;;;5031296;28;20392;-80
2022/06/11 08:49:46;;;;;;;10.15;0.60;;;21.60;99.90;;;;;;5045131;28;20017;-81
2022/06/11 08:52:19;;;;;;;6.82;0.50;;;20.90;99.90;;;;;;5030768;28;20534;-79
2022/06/11 08:54:47;;;;;;;7.25;0.88;;;21.10;99.90;;;;;;5035774;28;20112;-79
2022/06/11 08:57:25;;;;;;;10.30;0.95;;;20.70;99.90;;;;;;5038275;28;20668;-80
2022/06/11 09:00:06;;;;;;;6.28;0.70;;;20.90;99.90;;;;;;5028684;28;20033;-79
2022/06/11 09:02:53;;;;;;;5.00;0.40;;;20.90;99.90;;;;;;5030721;28;20534;-80
2022/06/11 09:05:40;;;;;;;6.68;0.60;;;21.50;99.90;;;;;;5013327;28;20616;-79
2022/06/11 09:08:27;;;;;;;7.75;0.80;;;21.10;99.90;;;;;;5035902;28;20406;-79
2022/06/11 09:11:26;;;;;;;9.77;0.80;;;21.20;99.90;;;;;;5029891;28;20417;-77
2022/06/11 09:14:40;;;;;;;6.22;0.60;;;20.60;99.90;;;;;;5026033;28;20041;-82
2022/06/11 09:17:18;;;;;;;7.63;0.57;;;20.30;99.90;;;;;;4992010;28;20469;-78
2022/06/11 09:19:56;;;;;;;8.25;0.75;;;20.20;99.90;;;;;;5017765;28;20124;-79
2022/06/11 09:22:40;;;;;;;4.63;0.68;;;20.90;99.90;;;;;;5015127;28;20439;-79
2022/06/11 09:25:43;;;;;;;3.47;0.40;;;21.40;99.90;;;;;;5018751;28;20032;-80
2022/06/11 09:28:22;;;;;;;3.38;0.40;;;21.60;99.90;;;;;;5029679;28;20037;-79
2022/06/11 09:31:04;;;;;;;5.18;0.60;;;21.70;99.90;;;;;;5032201;28;20039;-82
2022/06/11 09:33:40;;;;;;;3.85;0.50;;;22.00;99.90;;;;;;5036481;28;20059;-79
2022/06/11 09:36:16;;;;;;;3.47;0.32;;;22.20;99.90;;;;;;5019695;28;20269;-81
2022/06/11 09:39:09;;;;;;;6.80;0.50;;;23.20;99.90;;;;;;5033475;28;20401;-81
2022/06/11 09:41:57;;;;;;;3.03;0.40;;;23.30;99.90;;;;;;5009961;28;20730;-79
2022/06/11 09:44:55;;;;;;;7.32;0.95;;;22.80;99.90;;;;;;5019637;28;20053;-84
2022/06/11 09:47:27;;;;;;;3.65;0.70;;;22.80;99.90;;;;;;5026732;28;20480;-79
2022/06/11 09:50:08;;;;;;;6.22;0.60;;;23.40;99.90;;;;;;5026618;28;20404;-79
2022/06/11 09:53:05;;;;;;;5.43;0.47;;;23.50;99.90;;;;;;5026811;28;20043;-80
2022/06/11 09:55:46;;;;;;;8.60;0.82;;;23.70;99.90;;;;;;5028767;28;20039;-83
2022/06/11 09:58:19;;;;;;;8.90;0.70;;;22.70;99.90;;;;;;5033573;28;20167;-81
2022/06/11 10:00:49;;;;;;;5.57;0.70;;;22.60;99.90;;;;;;5016430;28;20045;-81
2022/06/11 10:06:17;;;;;;;3.85;0.50;;;22.60;99.90;;;;;;5026287;28;20445;-80
2022/06/11 10:09:00;;;;;;;5.75;0.52;;;22.90;99.90;;;;;;5026397;28;20041;-80
2022/06/11 10:11:50;;;;;;;7.05;0.65;;;23.30;99.90;;;;;;5016307;28;20033;-80
2022/06/11 10:14:36;;;;;;;3.80;0.40;;;22.50;99.90;;;;;;5016791;28;20142;-81
2022/06/11 10:17:20;;;;;;;4.47;0.50;;;23.50;99.90;;;;;;5012010;28;20032;-79
2022/06/11 10:20:10;;;;;;;4.57;0.60;;;23.40;99.90;;;;;;5027960;28;20365;-79
2022/06/11 10:22:48;;;;;;;6.13;0.80;;;24.30;99.90;;;;;;5033981;28;20464;-79
2022/06/11 10:25:34;;;;;;;5.50;0.40;;;22.90;99.90;;;;;;5028656;28;20051;-78
2022/06/11 10:28:31;;;;;;;4.15;0.57;;;23.60;99.90;;;;;;5012793;28;20048;-80
2022/06/11 10:31:26;;;;;;;5.50;0.68;;;23.30;99.90;;;;;;5007801;28;20046;-80
2022/06/11 10:34:11;;;;;;;6.78;0.65;;;23.20;99.90;;;;;;4996065;28;20534;-79
2022/06/11 10:36:43;;;;;;;4.03;0.30;;;23.70;99.90;;;;;;5031040;28;20064;-79
2022/06/11 10:39:25;;;;;;;7.55;0.50;;;24.40;99.90;;;;;;5035174;28;20164;-78
2022/06/11 10:42:04;;;;;;;7.75;0.50;;;24.10;99.90;;;;;;5031128;28;20037;-78
2022/06/11 10:44:38;;;;;;;5.03;0.40;;;23.30;99.90;;;;;;5031191;28;20036;-78
2022/06/11 10:47:20;;;;;;;4.65;0.70;;;24.30;99.90;;;;;;5029054;28;20214;-78
2022/06/11 10:49:50;;;;;;;6.25;0.60;;;24.80;99.90;;;;;;5028977;28;20392;-78
2022/06/11 10:52:38;;;;;;;;;;;23.10;99.90;;;;;;5033300;28;20067;-78
2022/06/11 10:55:10;;;;;;;5.43;0.85;;;23.10;99.90;;;;;;4959694;28;20361;-78
2022/06/11 10:57:37;;;;;;;5.03;0.80;;;22.80;99.90;;;;;;4977203;28;20041;-78
2022/06/11 11:00:16;;;;;;;5.72;0.50;;;22.90;99.90;;;;;;4976021;28;20050;-77
2022/06/11 11:03:00;;;;;;;6.38;0.50;;;22.80;99.90;;;;;;4976690;28;20038;-78
2022/06/11 11:05:45;;;;;;;7.82;0.70;;;23.00;99.90;;;;;;4977317;28;20117;-78
2022/06/11 11:08:12;;;;;;;3.85;0.40;;;22.60;99.90;;;;;;4966878;28;20069;-78
2022/06/11 11:10:58;;;;;;;8.05;0.50;;;22.90;99.90;;;;;;4944188;28;20034;-77
2022/06/11 11:13:45;;;;;;;7.00;0.50;;;22.60;99.90;;;;;;4975044;28;20050;-77
2022/06/11 11:16:17;;;;;;;4.40;0.35;;;22.70;99.90;;;;;;4961477;28;20030;-78
2022/06/11 11:18:52;;;;;;;7.38;0.60;;;23.00;99.90;;;;;;4943456;28;20057;-80
2022/06/11 11:21:26;;;;;;;5.13;0.50;;;22.70;99.90;;;;;;4960151;28;20070;-79
2022/06/11 11:23:55;;;;;;;6.50;0.50;;;22.50;99.90;;;;;;4959398;28;20043;-78
2022/06/11 11:26:41;;;;;;;6.50;0.63;;;22.60;99.90;;;;;;4961967;28;20106;-79
2022/06/11 11:29:11;;;;;;;6.97;0.50;;;22.90;99.90;;;;;;4976618;28;20426;-78
2022/06/11 11:31:45;;;;;;;6.32;0.60;;;23.20;99.90;;;;;;4959438;28;20065;-78
2022/06/11 11:34:14;;;;;;;8.63;0.52;;;23.10;99.90;;;;;;5034513;28;20040;-78
2022/06/11 11:36:40;;;;;;;8.45;0.95;;;23.10;99.90;;;;;;5030128;28;20049;-79
2022/06/11 11:39:12;;;;;;;8.73;0.70;;;22.70;99.90;;;;;;5027867;28;20469;-78
2022/06/11 11:41:46;;;;;;;8.15;0.95;;;22.80;99.90;;;;;;5017823;28;20260;-79
2022/06/11 11:44:21;;;;;;;6.07;0.55;;;22.90;99.90;;;;;;5027324;28;20040;-77
2022/06/11 11:46:52;;;;;;;5.78;0.50;;;23.00;99.90;;;;;;5043314;28;20065;-78
2022/06/11 11:49:33;;;;;;;9.18;0.70;;;23.20;99.90;;;;;;5015024;28;22175;-78
2022/06/11 11:52:12;;;;;;;7.38;0.60;;;23.10;99.90;;;;;;5028164;28;20175;-77
2022/06/11 11:54:46;;;;;;;6.43;0.55;;;23.30;99.90;;;;;;5034202;28;20409;-79
2022/06/11 11:57:16;;;;;;;3.67;0.60;;;23.20;99.90;;;;;;5027616;28;20299;-78
2022/06/11 11:59:57;;;;;;;5.35;0.68;;;23.90;99.90;;;;;;5027040;28;20124;-78
2022/06/11 12:02:30;;;;;;;6.78;0.70;;;24.30;99.90;;;;;;5034875;28;20618;-78
2022/06/11 12:05:19;;;;;;;5.45;0.65;;;23.70;99.90;;;;;;5014060;28;20030;-78
2022/06/11 12:07:47;;;;;;;6.22;0.55;;;23.90;99.90;;;;;;5034751;28;20499;-79
2022/06/11 12:10:35;;;;;;;3.42;0.30;;;24.50;99.90;;;;;;5034659;28;20490;-78
2022/06/11 12:13:01;;;;;;;7.18;0.60;;;24.70;99.90;;;;;;5020948;28;22576;-78
2022/06/11 12:15:32;;;;;;;8.32;0.82;;;23.40;99.90;;;;;;5047627;28;20167;-78
2022/06/11 12:18:12;;;;;;;6.88;0.50;;;22.60;99.90;;;;;;5031207;28;20040;-78
2022/06/11 12:20:50;;;;;;;6.60;0.57;;;23.30;99.90;;;;;;5012816;28;20122;-78
2022/06/11 12:23:36;;;;;;;6.70;0.60;;;24.10;99.90;;;;;;5031830;28;20037;-79
2022/06/11 12:26:09;;;;;;;7.60;0.90;;;23.60;99.90;;;;;;5017922;28;20076;-78
2022/06/11 12:28:37;;;;;;;4.38;0.40;;;23.80;99.90;;;;;;5019437;28;20128;-77
2022/06/11 12:31:03;;;;;;;3.00;0.30;;;24.90;99.90;;;;;;5034863;28;20041;-79
2022/06/11 12:33:29;;;;;;;4.85;0.60;;;24.50;99.90;;;;;;5029811;28;20037;-79
2022/06/11 12:36:07;;;;;;;3.28;0.40;;;23.80;99.90;;;;;;5033166;28;20049;-78
2022/06/11 12:38:44;;;;;;;4.03;0.40;;;24.50;99.90;;;;;;5033975;28;20106;-78
2022/06/11 12:41:22;;;;;;;3.90;0.70;;;24.90;99.90;;;;;;5025683;28;20080;-79
2022/06/11 12:44:03;;;;;;;5.95;0.70;;;24.70;99.90;;;;;;5025372;28;20062;-78
2022/06/11 12:46:36;;;;;;;3.40;0.40;;;24.20;99.90;;;;;;5011296;28;20044;-78
2022/06/11 12:49:10;;;;;;;7.00;0.73;;;24.10;99.90;;;;;;5025937;28;20029;-80
2022/06/11 12:51:54;;;;;;;5.63;0.63;;;24.20;99.90;;;;;;5034176;28;20034;-79
2022/06/11 12:54:42;;;;;;;7.57;0.60;;;23.90;99.90;;;;;;5011659;28;20052;-79
2022/06/11 12:57:27;;;;;;;7.80;0.70;;;24.20;99.90;;;;;;5016445;28;20156;-78
2022/06/11 13:00:23;;;;;;;9.95;0.90;;;23.80;99.90;;;;;;5018745;28;20379;-78
2022/06/11 13:03:20;;;;;;;7.57;0.50;;;23.60;99.90;;;;;;5036929;28;20068;-78
2022/06/11 13:05:49;;;;;;;4.68;0.43;;;23.60;99.90;;;;;;5033630;28;20048;-84
2022/06/11 13:08:18;;;;;;;5.55;0.52;;;23.90;99.90;;;;;;5030155;28;20032;-82
2022/06/11 13:10:50;;;;;;;3.70;0.40;;;24.50;99.90;;;;;;5035374;28;20048;-85
2022/06/11 13:13:43;;;;;;;7.28;0.50;;;24.90;99.90;;;;;;5020991;28;20040;-87
2022/06/11 13:16:49;;;;;;;4.72;0.40;;;25.00;99.90;;;;;;5020326;28;20385;-88
2022/06/11 13:19:21;;;;;;;3.53;0.50;;;25.10;99.90;;;;;;5031386;28;20029;-84
2022/06/11 13:21:52;;;;;;;3.08;0.40;;;25.40;99.90;;;;;;5015207;28;20444;-86
2022/06/11 13:24:26;;;;;;;6.72;0.70;;;25.20;99.90;;;;;;5039643;28;20432;-86